createdAt,value
2018-12-01T00:01:40.368Z,953.7
2018-12-01T00:04:46.218Z,953.8
2018-12-01T00:07:52.153Z,953.8
2018-12-01T00:10:58.111Z,953.7
2018-12-01T00:14:05.203Z,953.8
2018-12-01T00:17:11.167Z,953.9
2018-12-01T00:20:17.044Z,953.8
2018-12-01T00:23:23.049Z,953.8
2018-12-01T00:26:29.139Z,953.8
2018-12-01T00:29:35.010Z,953.9
2018-12-01T00:32:41.061Z,953.8
2018-12-01T00:35:47.023Z,953.8
2018-12-01T00:38:53.085Z,953.8
2018-12-01T00:41:58.949Z,953.8
2018-12-01T00:45:04.898Z,953.8
2018-12-01T00:48:10.768Z,953.8
2018-12-01T00:51:16.814Z,953.7
2018-12-01T00:54:22.685Z,953.7
2018-12-01T00:57:28.736Z,953.7
2018-12-01T01:00:34.606Z,953.7
2018-12-01T01:03:40.551Z,953.6
2018-12-01T01:06:46.419Z,953.7
2018-12-01T01:09:52.470Z,953.7
2018-12-01T01:12:58.526Z,953.7
2018-12-01T01:16:04.430Z,953.8
2018-12-01T01:19:10.343Z,953.7
2018-12-01T01:22:16.216Z,953.6
2018-12-01T01:25:22.311Z,953.6
2018-12-01T01:28:28.228Z,953.4
2018-12-01T01:31:34.186Z,953.4
2018-12-01T01:34:40.235Z,953.3
2018-12-01T01:37:46.117Z,953.2
2018-12-01T01:40:52.057Z,953.1
2018-12-01T01:43:58.119Z,953.2
2018-12-01T01:47:03.993Z,953.2
2018-12-01T01:50:09.945Z,953.3
2018-12-01T01:53:15.905Z,953.3
2018-12-01T01:56:21.857Z,953.2
2018-12-01T01:59:27.727Z,952.9
2018-12-01T02:02:33.675Z,953
2018-12-01T02:05:39.633Z,953.2
2018-12-01T02:08:45.502Z,952.9
2018-12-01T02:11:51.551Z,952.9
2018-12-01T02:14:57.507Z,952.8
2018-12-01T02:18:03.478Z,952.9
2018-12-01T02:21:09.437Z,953
2018-12-01T02:24:15.496Z,952.9
2018-12-01T02:27:21.378Z,953.1
2018-12-01T02:30:27.409Z,953
2018-12-01T02:33:33.281Z,953
2018-12-01T02:36:39.227Z,953.1
2018-12-01T02:39:45.299Z,953
2018-12-01T02:42:51.254Z,953.1
2018-12-01T02:45:57.210Z,953
2018-12-01T02:49:03.273Z,953.1
2018-12-01T02:52:09.234Z,953.1
2018-12-01T02:55:15.193Z,953.3
2018-12-01T02:58:21.252Z,953.3
2018-12-01T03:01:27.204Z,953.4
2018-12-01T03:04:33.076Z,953.3
2018-12-01T03:07:39.131Z,953.4
2018-12-01T03:10:45.186Z,953.4
2018-12-01T03:13:51.069Z,953.4
2018-12-01T03:16:57.058Z,953.4
2018-12-01T03:20:03.073Z,953.4
2018-12-01T03:23:08.946Z,953.3
2018-12-01T03:26:14.882Z,953.3
2018-12-01T03:29:20.760Z,953.3
2018-12-01T03:32:26.802Z,953.3
2018-12-01T03:35:32.872Z,953.3
2018-12-01T03:38:38.732Z,953.3
2018-12-01T03:41:44.779Z,953.2
2018-12-01T03:44:50.736Z,953.2
2018-12-01T03:47:56.622Z,953.1
2018-12-01T03:51:02.495Z,953.2
2018-12-01T03:54:08.514Z,953.2
2018-12-01T03:57:14.473Z,953.3
2018-12-01T04:00:20.545Z,953.2
2018-12-01T04:03:26.504Z,953.3
2018-12-01T04:06:32.381Z,953.3
2018-12-01T04:09:38.335Z,953.5
2018-12-01T04:12:44.473Z,953.4
2018-12-01T04:15:50.612Z,953.5
2018-12-01T04:18:56.809Z,953.4
2018-12-01T04:22:02.800Z,953.5
2018-12-01T04:25:08.732Z,953.4
2018-12-01T04:28:14.791Z,953.3
2018-12-01T04:31:20.855Z,953.4
2018-12-01T04:34:26.816Z,953.3
2018-12-01T04:37:32.779Z,953.3
2018-12-01T04:40:38.763Z,953.4
2018-12-01T04:43:44.700Z,953.4
2018-12-01T04:46:50.650Z,953.4
2018-12-01T04:49:56.515Z,953.5
2018-12-01T04:53:02.590Z,953.6
2018-12-01T04:56:08.527Z,953.6
2018-12-01T04:59:14.491Z,953.6
2018-12-01T05:02:20.649Z,953.6
2018-12-01T05:05:26.736Z,953.7
2018-12-01T05:08:32.676Z,953.6
2018-12-01T05:11:38.548Z,953.6
2018-12-01T05:14:44.647Z,953.8
2018-12-01T05:17:50.649Z,953.8
2018-12-01T05:20:56.607Z,953.8
2018-12-01T05:24:02.501Z,953.9
2018-12-01T05:27:08.530Z,953.9
2018-12-01T05:30:14.432Z,953.9
2018-12-01T05:33:20.450Z,954
2018-12-01T05:36:26.410Z,954
2018-12-01T05:39:32.389Z,954
2018-12-01T05:42:38.322Z,954.2
2018-12-01T05:45:44.208Z,954.2
2018-12-01T05:48:50.146Z,954.2
2018-12-01T05:51:56.025Z,954.3
2018-12-01T05:55:01.967Z,954.3
2018-12-01T05:58:07.825Z,954.3
2018-12-01T06:01:16.844Z,954.2
2018-12-01T06:04:22.800Z,954.2
2018-12-01T06:07:28.768Z,954.2
2018-12-01T06:10:34.730Z,954.3
2018-12-01T06:13:40.794Z,954.3
2018-12-01T06:16:46.652Z,954.3
2018-12-01T06:19:52.701Z,954.4
2018-12-01T06:22:58.657Z,954.4
2018-12-01T06:26:04.620Z,954.5
2018-12-01T06:29:13.293Z,954.4
2018-12-01T06:32:19.412Z,954.4
2018-12-01T06:35:25.287Z,954.4
2018-12-01T06:38:31.322Z,954.4
2018-12-01T06:41:37.280Z,954.3
2018-12-01T06:44:43.186Z,954.4
2018-12-01T06:47:49.198Z,954.4
2018-12-01T06:50:55.076Z,954.4
2018-12-01T06:54:01.015Z,954.2
2018-12-01T06:57:06.888Z,954.3
2018-12-01T07:00:12.937Z,954.3
2018-12-01T07:03:18.823Z,954.4
2018-12-01T07:06:27.624Z,954.4
2018-12-01T07:09:33.584Z,954.4
2018-12-01T07:12:39.509Z,954.3
2018-12-01T07:15:45.507Z,954.3
2018-12-01T07:18:52.274Z,954.3
2018-12-01T07:21:58.468Z,954.4
2018-12-01T07:25:04.427Z,954.5
2018-12-01T07:28:10.369Z,954.5
2018-12-01T07:31:16.246Z,954.6
2018-12-01T07:34:22.287Z,954.7
2018-12-01T07:37:28.352Z,954.6
2018-12-01T07:40:34.210Z,954.7
2018-12-01T07:43:40.256Z,954.6
2018-12-01T07:46:46.140Z,954.6
2018-12-01T07:49:52.201Z,954.7
2018-12-01T07:52:58.055Z,954.6
2018-12-01T07:56:04.194Z,954.8
2018-12-01T07:59:10.205Z,954.8
2018-12-01T08:02:16.118Z,954.8
2018-12-01T08:05:22.103Z,954.8
2018-12-01T08:08:28.069Z,954.8
2018-12-01T08:11:34.038Z,954.8
2018-12-01T08:14:40.160Z,954.8
2018-12-01T08:17:46.124Z,954.9
2018-12-01T08:20:53.163Z,954.9
2018-12-01T08:23:59.090Z,954.9
2018-12-01T08:27:05.006Z,954.9
2018-12-01T08:30:11.002Z,954.9
2018-12-01T08:33:16.971Z,954.8
2018-12-01T08:36:26.006Z,954.9
2018-12-01T08:39:32.037Z,954.7
2018-12-01T08:42:37.947Z,954.8
2018-12-01T08:45:44.061Z,954.8
2018-12-01T08:48:49.996Z,954.8
2018-12-01T08:51:56.005Z,954.8
2018-12-01T08:55:01.916Z,954.8
2018-12-01T08:58:07.888Z,954.8
2018-12-01T09:01:13.780Z,954.8
2018-12-01T09:04:19.821Z,954.8
2018-12-01T09:07:25.973Z,954.8
2018-12-01T09:10:32.033Z,954.8
2018-12-01T09:13:38.157Z,954.8
2018-12-01T09:16:44.195Z,954.8
2018-12-01T09:19:50.249Z,954.7
2018-12-01T09:22:56.208Z,954.7
2018-12-01T09:26:02.250Z,954.6
2018-12-01T09:29:08.303Z,954.6
2018-12-01T09:32:14.272Z,954.7
2018-12-01T09:35:20.271Z,954.6
2018-12-01T09:38:26.206Z,954.5
2018-12-01T09:41:32.247Z,954.5
2018-12-01T09:44:38.125Z,954.5
2018-12-01T09:47:44.160Z,954.4
2018-12-01T09:50:50.100Z,954.4
2018-12-01T09:53:58.670Z,954.4
2018-12-01T09:57:04.726Z,954.4
2018-12-01T10:00:10.637Z,954.4
2018-12-01T10:03:16.618Z,954.3
2018-12-01T10:06:22.503Z,954.3
2018-12-01T10:09:28.443Z,954.3
2018-12-01T10:12:34.397Z,954.3
2018-12-01T10:15:40.351Z,954.3
2018-12-01T10:18:46.318Z,954.3
2018-12-01T10:21:52.492Z,954.3
2018-12-01T10:24:58.537Z,954.3
2018-12-01T10:28:04.610Z,954.2
2018-12-01T10:31:10.570Z,954.2
2018-12-01T10:34:19.543Z,954.2
2018-12-01T10:37:25.752Z,954.1
2018-12-01T10:40:31.632Z,954.1
2018-12-01T10:43:37.686Z,954.1
2018-12-01T10:46:46.680Z,954
2018-12-01T10:49:52.701Z,954
2018-12-01T10:52:58.679Z,954.1
2018-12-01T10:56:04.560Z,954.1
2018-12-01T10:59:10.581Z,954.1
2018-12-01T11:02:16.617Z,954.2
2018-12-01T11:05:22.502Z,954.1
2018-12-01T11:08:28.521Z,954.1
2018-12-01T11:11:34.592Z,954.1
2018-12-01T11:14:40.551Z,954
2018-12-01T11:17:49.253Z,954
2018-12-01T11:20:55.234Z,953.9
2018-12-01T11:24:01.395Z,953.9
2018-12-01T11:27:07.454Z,953.9
2018-12-01T11:30:16.176Z,953.9
2018-12-01T11:33:22.188Z,953.9
2018-12-01T11:36:28.205Z,953.9
2018-12-01T11:39:34.414Z,953.9
2018-12-01T11:42:40.422Z,953.9
2018-12-01T11:45:46.381Z,953.8
2018-12-01T11:48:52.447Z,953.8
2018-12-01T11:51:58.457Z,953.8
2018-12-01T11:55:04.566Z,953.9
2018-12-01T11:58:10.534Z,953.9
2018-12-01T12:01:16.483Z,953.8
2018-12-01T12:04:22.453Z,953.9
2018-12-01T12:07:28.663Z,953.9
2018-12-01T12:10:34.668Z,953.8
2018-12-01T12:13:40.554Z,953.8
2018-12-01T12:16:46.590Z,953.8
2018-12-01T12:19:52.598Z,953.8
2018-12-01T12:22:58.520Z,953.8
2018-12-01T12:26:04.399Z,953.8
2018-12-01T12:29:10.469Z,953.8
2018-12-01T12:32:16.443Z,953.7
2018-12-01T12:35:22.560Z,953.7
2018-12-01T12:38:28.538Z,953.8
2018-12-01T12:41:34.409Z,953.7
2018-12-01T12:44:40.475Z,953.7
2018-12-01T12:47:46.489Z,953.7
2018-12-01T12:50:54.405Z,953.7
2018-12-01T12:54:00.526Z,953.6
2018-12-01T12:57:06.500Z,953.7
2018-12-01T13:00:12.537Z,953.8
2018-12-01T13:03:18.590Z,953.8
2018-12-01T13:06:24.707Z,953.8
2018-12-01T13:09:33.497Z,953.8
2018-12-01T13:12:39.449Z,953.8
2018-12-01T13:15:45.455Z,953.8
2018-12-01T13:18:51.513Z,953.9
2018-12-01T13:21:57.408Z,953.9
2018-12-01T13:25:03.441Z,953.9
2018-12-01T13:28:09.388Z,953.9
2018-12-01T13:31:15.452Z,953.9
2018-12-01T13:34:21.365Z,953.9
2018-12-01T13:37:27.397Z,954
2018-12-01T13:40:33.243Z,953.8
2018-12-01T13:43:39.289Z,953.9
2018-12-01T13:46:45.298Z,953.8
2018-12-01T13:49:51.308Z,954
2018-12-01T13:52:58.128Z,954
2018-12-01T13:56:04.149Z,954.1
2018-12-01T13:59:12.730Z,954.1
2018-12-01T14:02:18.728Z,954.2
2018-12-01T14:05:24.800Z,954.1
2018-12-01T14:08:30.851Z,954.1
2018-12-01T14:11:36.737Z,954.1
2018-12-01T14:14:42.783Z,954.2
2018-12-01T14:17:48.831Z,954.3
2018-12-01T14:20:54.996Z,954.2
2018-12-01T14:24:00.870Z,954.2
2018-12-01T14:27:06.912Z,954.2
2018-12-01T14:30:12.976Z,954.2
2018-12-01T14:33:19.037Z,954.2
2018-12-01T14:36:25.000Z,954.1
2018-12-01T14:39:31.058Z,954.2
2018-12-01T14:42:37.326Z,954.1
2018-12-01T14:45:43.448Z,954.1
2018-12-01T14:48:49.458Z,954.1
2018-12-01T14:51:55.323Z,954.2
2018-12-01T14:55:01.489Z,954.3
2018-12-01T14:58:07.576Z,954.4
2018-12-01T15:01:13.522Z,954.3
2018-12-01T15:04:19.629Z,954.2
2018-12-01T15:07:28.490Z,954.2
2018-12-01T15:10:34.479Z,954.2
2018-12-01T15:13:40.416Z,954.2
2018-12-01T15:16:46.296Z,954.2
2018-12-01T15:19:52.326Z,954.3
2018-12-01T15:22:58.265Z,954.3
2018-12-01T15:26:04.249Z,954.4
2018-12-01T15:29:10.313Z,954.3
2018-12-01T15:32:16.365Z,954.4
2018-12-01T15:35:22.332Z,954.4
2018-12-01T15:38:28.385Z,954.4
2018-12-01T15:41:34.273Z,954.4
2018-12-01T15:44:42.973Z,954.5
2018-12-01T15:47:48.929Z,954.4
2018-12-01T15:50:56.008Z,954.5
2018-12-01T15:54:01.972Z,954.6
2018-12-01T15:57:07.937Z,954.6
2018-12-01T16:00:13.987Z,954.6
2018-12-01T16:03:19.946Z,954.8
2018-12-01T16:06:25.916Z,954.7
2018-12-01T16:09:31.973Z,954.7
2018-12-01T16:12:37.933Z,954.7
2018-12-01T16:15:43.988Z,954.8
2018-12-01T16:18:49.876Z,954.8
2018-12-01T16:21:55.926Z,954.7
2018-12-01T16:25:01.790Z,954.6
2018-12-01T16:28:07.733Z,954.7
2018-12-01T16:31:13.751Z,954.7
2018-12-01T16:34:19.622Z,954.8
2018-12-01T16:37:25.602Z,954.8
2018-12-01T16:40:31.502Z,954.9
2018-12-01T16:43:37.523Z,954.8
2018-12-01T16:46:43.584Z,954.8
2018-12-01T16:49:49.777Z,954.9
2018-12-01T16:52:56.680Z,954.8
2018-12-01T16:56:02.794Z,954.9
2018-12-01T16:59:08.858Z,954.9
2018-12-01T17:02:14.774Z,954.9
2018-12-01T17:05:20.779Z,955
2018-12-01T17:08:26.868Z,955
2018-12-01T17:11:32.708Z,955
2018-12-01T17:14:38.655Z,955
2018-12-01T17:17:44.618Z,955.2
2018-12-01T17:20:50.615Z,955.2
2018-12-01T17:23:56.734Z,955.1
2018-12-01T17:27:02.796Z,955.2
2018-12-01T17:30:08.683Z,955.2
2018-12-01T17:33:17.377Z,955.2
2018-12-01T17:36:23.350Z,955.2
2018-12-01T17:39:29.397Z,955.1
2018-12-01T17:42:35.304Z,955.1
2018-12-01T17:45:41.316Z,955.1
2018-12-01T17:48:47.224Z,955.1
2018-12-01T17:51:53.339Z,955.2
2018-12-01T17:54:59.300Z,955.2
2018-12-01T17:58:05.358Z,955.1
2018-12-01T18:01:11.238Z,955.1
2018-12-01T18:04:17.238Z,955.1
2018-12-01T18:07:26.204Z,955.1
2018-12-01T18:10:32.107Z,955
2018-12-01T18:13:38.129Z,954.9
2018-12-01T18:16:45.223Z,954.8
2018-12-01T18:19:51.175Z,954.8
2018-12-01T18:22:57.147Z,954.8
2018-12-01T18:26:03.036Z,954.8
2018-12-01T18:29:09.048Z,954.8
2018-12-01T18:32:14.947Z,954.8
2018-12-01T18:35:20.862Z,955
2018-12-01T18:38:26.825Z,955
2018-12-01T18:41:32.895Z,954.9
2018-12-01T18:44:38.762Z,954.9
2018-12-01T18:47:47.375Z,954.9
2018-12-01T18:50:53.198Z,954.9
2018-12-01T18:53:59.179Z,955
2018-12-01T18:57:05.141Z,954.9
2018-12-01T19:00:11.019Z,954.9
2018-12-01T19:03:17.113Z,954.9
2018-12-01T19:06:23.002Z,954.9
2018-12-01T19:09:28.976Z,955
2018-12-01T19:12:34.912Z,955
2018-12-01T19:15:40.909Z,955.1
2018-12-01T19:18:46.784Z,955.2
2018-12-01T19:21:52.720Z,955.2
2018-12-01T19:24:58.598Z,955.2
2018-12-01T19:28:05.348Z,955.3
2018-12-01T19:31:11.418Z,955.2
2018-12-01T19:34:19.865Z,955.2
2018-12-01T19:37:25.886Z,955.3
2018-12-01T19:40:32.666Z,955.4
2018-12-01T19:43:38.733Z,955.3
2018-12-01T19:46:44.615Z,955.3
2018-12-01T19:49:50.644Z,955.3
2018-12-01T19:52:56.711Z,955.4
2018-12-01T19:56:05.307Z,955.4
2018-12-01T19:59:11.300Z,955.3
2018-12-01T20:02:17.188Z,955.3
2018-12-01T20:05:23.208Z,955.2
2018-12-01T20:08:29.174Z,955.2
2018-12-01T20:11:35.051Z,955.2
2018-12-01T20:14:41.093Z,955.2
2018-12-01T20:17:47.048Z,955.2
2018-12-01T20:20:53.111Z,955.1
2018-12-01T20:23:59.002Z,955.1
2018-12-01T20:27:05.026Z,955.2
2018-12-01T20:30:10.981Z,955.2
2018-12-01T20:33:17.045Z,955.3
2018-12-01T20:36:25.572Z,955.2
2018-12-01T20:39:31.690Z,955.2
2018-12-01T20:42:37.803Z,955.2
2018-12-01T20:45:43.762Z,955.3
2018-12-01T20:48:49.924Z,955.2
2018-12-01T20:51:55.802Z,955.2
2018-12-01T20:55:01.832Z,955.3
2018-12-01T20:58:07.705Z,955.3
2018-12-01T21:01:13.763Z,955.2
2018-12-01T21:04:19.725Z,955.2
2018-12-01T21:07:25.786Z,955.3
2018-12-01T21:10:31.746Z,955.2
2018-12-01T21:13:37.614Z,955.2
2018-12-01T21:16:43.659Z,955.2
2018-12-01T21:19:49.536Z,955.2
2018-12-01T21:22:55.627Z,955.2
2018-12-01T21:26:01.737Z,955.3
2018-12-01T21:29:07.700Z,955.3
2018-12-01T21:32:13.565Z,955.4
2018-12-01T21:35:19.666Z,955.4
2018-12-01T21:38:25.629Z,955.4
2018-12-01T21:41:31.745Z,955.4
2018-12-01T21:44:37.806Z,955.5
2018-12-01T21:47:43.968Z,955.5
2018-12-01T21:50:49.923Z,955.6
2018-12-01T21:53:55.805Z,955.5
2018-12-01T21:57:02.609Z,955.4
2018-12-01T22:00:08.616Z,955.4
2018-12-01T22:03:14.581Z,955.5
2018-12-01T22:06:20.533Z,955.5
2018-12-01T22:09:26.448Z,955.6
2018-12-01T22:12:32.456Z,955.6
2018-12-01T22:15:38.516Z,955.5
2018-12-01T22:18:47.091Z,955.6
2018-12-01T22:21:53.130Z,955.5
2018-12-01T22:24:59.056Z,955.5
2018-12-01T22:28:05.841Z,955.5
2018-12-01T22:31:11.791Z,955.5
2018-12-01T22:34:17.752Z,955.5
2018-12-01T22:37:23.685Z,955.5
2018-12-01T22:40:29.678Z,955.5
2018-12-01T22:43:35.732Z,955.5
2018-12-01T22:46:41.692Z,955.5
2018-12-01T22:49:47.675Z,955.5
2018-12-01T22:52:53.713Z,955.5
2018-12-01T22:55:59.592Z,955.4
2018-12-01T22:59:05.631Z,955.5
2018-12-01T23:02:11.513Z,955.4
2018-12-01T23:05:18.266Z,955.4
2018-12-01T23:08:24.338Z,955.4
2018-12-01T23:11:30.214Z,955.4
2018-12-01T23:14:36.143Z,955.4
2018-12-01T23:17:42.107Z,955.4
2018-12-01T23:20:48.175Z,955.3
2018-12-01T23:23:54.155Z,955.4
2018-12-01T23:27:00.011Z,955.4
2018-12-01T23:30:06.048Z,955.4
2018-12-01T23:33:11.915Z,955.4
2018-12-01T23:36:17.860Z,955.5
2018-12-01T23:39:23.745Z,955.4
2018-12-01T23:42:29.705Z,955.4
2018-12-01T23:45:35.641Z,955.3
2018-12-01T23:48:41.698Z,955.4
2018-12-01T23:51:47.759Z,955.4
2018-12-01T23:54:53.718Z,955.4
2018-12-01T23:57:59.680Z,955.3
